sensor_id;sensor_type;location;lat;lon;timestamp;P1;durP1;ratioP1;P2;durP2;ratioP2
13847;SDS011;6994;49.752;6.094;2022-10-29T00:00:36;16.15;;;7.93;;
13847;SDS011;6994;49.752;6.094;2022-10-29T00:03:03;14.55;;;6.50;;
13847;SDS011;6994;49.752;6.094;2022-10-29T00:05:30;10.43;;;6.15;;
13847;SDS011;6994;49.752;6.094;2022-10-29T00:07:57;13.80;;;6.97;;
13847;SDS011;6994;49.752;6.094;2022-10-29T00:10:24;11.30;;;6.03;;
13847;SDS011;6994;49.752;6.094;2022-10-29T00:12:52;17.12;;;6.80;;
13847;SDS011;6994;49.752;6.094;2022-10-29T00:15:19;13.13;;;6.62;;
13847;SDS011;6994;49.752;6.094;2022-10-29T00:17:46;10.40;;;6.43;;
13847;SDS011;6994;49.752;6.094;2022-10-29T00:20:13;10.65;;;7.15;;
13847;SDS011;6994;49.752;6.094;2022-10-29T00:22:40;17.55;;;7.05;;
13847;SDS011;6994;49.752;6.094;2022-10-29T00:25:08;13.27;;;6.43;;
13847;SDS011;6994;49.752;6.094;2022-10-29T00:27:35;9.98;;;6.55;;
13847;SDS011;6994;49.752;6.094;2022-10-29T00:30:03;11.60;;;8.05;;
13847;SDS011;6994;49.752;6.094;2022-10-29T00:32:30;12.70;;;6.25;;
13847;SDS011;6994;49.752;6.094;2022-10-29T00:34:57;17.73;;;7.85;;
13847;SDS011;6994;49.752;6.094;2022-10-29T00:37:24;15.20;;;7.60;;
13847;SDS011;6994;49.752;6.094;2022-10-29T00:39:52;12.98;;;6.37;;
13847;SDS011;6994;49.752;6.094;2022-10-29T00:42:19;15.57;;;8.45;;
13847;SDS011;6994;49.752;6.094;2022-10-29T00:44:46;17.25;;;7.50;;
13847;SDS011;6994;49.752;6.094;2022-10-29T00:49:55;15.23;;;7.82;;
13847;SDS011;6994;49.752;6.094;2022-10-29T00:52:20;10.48;;;8.32;;
13847;SDS011;6994;49.752;6.094;2022-10-29T00:54:47;17.45;;;10.40;;
13847;SDS011;6994;49.752;6.094;2022-10-29T00:57:16;14.05;;;8.23;;
13847;SDS011;6994;49.752;6.094;2022-10-29T00:59:44;16.35;;;8.75;;
13847;SDS011;6994;49.752;6.094;2022-10-29T01:02:11;14.87;;;7.82;;
13847;SDS011;6994;49.752;6.094;2022-10-29T01:04:39;18.40;;;8.10;;
13847;SDS011;6994;49.752;6.094;2022-10-29T01:07:06;12.37;;;8.10;;
13847;SDS011;6994;49.752;6.094;2022-10-29T01:09:33;18.52;;;8.00;;
13847;SDS011;6994;49.752;6.094;2022-10-29T01:12:14;13.52;;;7.70;;
13847;SDS011;6994;49.752;6.094;2022-10-29T01:14:49;18.85;;;9.68;;
13847;SDS011;6994;49.752;6.094;2022-10-29T01:17:39;12.85;;;8.52;;
13847;SDS011;6994;49.752;6.094;2022-10-29T01:20:10;18.15;;;7.80;;
13847;SDS011;6994;49.752;6.094;2022-10-29T01:22:58;14.70;;;8.95;;
13847;SDS011;6994;49.752;6.094;2022-10-29T01:25:44;17.12;;;8.40;;
13847;SDS011;6994;49.752;6.094;2022-10-29T01:31:06;14.55;;;7.75;;
13847;SDS011;6994;49.752;6.094;2022-10-29T01:33:52;12.05;;;8.02;;
13847;SDS011;6994;49.752;6.094;2022-10-29T01:36:24;13.77;;;7.55;;
13847;SDS011;6994;49.752;6.094;2022-10-29T01:39:54;13.27;;;7.53;;
13847;SDS011;6994;49.752;6.094;2022-10-29T01:41:56;10.85;;;8.00;;
13847;SDS011;6994;49.752;6.094;2022-10-29T01:47:04;15.95;;;10.27;;
13847;SDS011;6994;49.752;6.094;2022-10-29T01:49:36;20.95;;;11.10;;
13847;SDS011;6994;49.752;6.094;2022-10-29T01:51:59;14.27;;;7.87;;
13847;SDS011;6994;49.752;6.094;2022-10-29T01:54:26;13.70;;;7.12;;
13847;SDS011;6994;49.752;6.094;2022-10-29T01:56:57;12.02;;;7.78;;
13847;SDS011;6994;49.752;6.094;2022-10-29T01:59:21;17.20;;;9.48;;
13847;SDS011;6994;49.752;6.094;2022-10-29T02:06:58;14.57;;;8.10;;
13847;SDS011;6994;49.752;6.094;2022-10-29T02:09:50;14.20;;;8.20;;
13847;SDS011;6994;49.752;6.094;2022-10-29T02:12:19;14.95;;;8.20;;
13847;SDS011;6994;49.752;6.094;2022-10-29T02:14:55;13.85;;;8.75;;
13847;SDS011;6994;49.752;6.094;2022-10-29T02:17:26;14.32;;;8.27;;
13847;SDS011;6994;49.752;6.094;2022-10-29T02:19:53;16.48;;;7.90;;
13847;SDS011;6994;49.752;6.094;2022-10-29T02:22:20;14.52;;;7.93;;
13847;SDS011;6994;49.752;6.094;2022-10-29T02:24:47;18.52;;;9.38;;
13847;SDS011;6994;49.752;6.094;2022-10-29T02:27:15;15.63;;;8.45;;
13847;SDS011;6994;49.752;6.094;2022-10-29T02:29:42;12.68;;;8.25;;
13847;SDS011;6994;49.752;6.094;2022-10-29T02:32:09;17.60;;;11.07;;
13847;SDS011;6994;49.752;6.094;2022-10-29T02:34:36;12.63;;;8.52;;
13847;SDS011;6994;49.752;6.094;2022-10-29T02:37:03;15.57;;;8.68;;
13847;SDS011;6994;49.752;6.094;2022-10-29T02:39:31;11.15;;;7.82;;
13847;SDS011;6994;49.752;6.094;2022-10-29T02:41:58;13.70;;;7.07;;
13847;SDS011;6994;49.752;6.094;2022-10-29T02:44:25;20.00;;;8.02;;
13847;SDS011;6994;49.752;6.094;2022-10-29T02:46:52;16.58;;;8.70;;
13847;SDS011;6994;49.752;6.094;2022-10-29T02:49:19;18.70;;;9.43;;
13847;SDS011;6994;49.752;6.094;2022-10-29T02:51:47;17.08;;;9.85;;
13847;SDS011;6994;49.752;6.094;2022-10-29T02:54:14;13.13;;;8.18;;
13847;SDS011;6994;49.752;6.094;2022-10-29T02:56:42;16.02;;;6.90;;
13847;SDS011;6994;49.752;6.094;2022-10-29T02:59:09;15.05;;;7.07;;
13847;SDS011;6994;49.752;6.094;2022-10-29T03:01:36;16.27;;;8.35;;
13847;SDS011;6994;49.752;6.094;2022-10-29T03:04:03;17.58;;;9.00;;
13847;SDS011;6994;49.752;6.094;2022-10-29T03:06:31;11.85;;;7.30;;
13847;SDS011;6994;49.752;6.094;2022-10-29T03:08:58;13.10;;;7.55;;
13847;SDS011;6994;49.752;6.094;2022-10-29T03:11:26;11.95;;;6.65;;
13847;SDS011;6994;49.752;6.094;2022-10-29T03:13:54;15.93;;;8.32;;
13847;SDS011;6994;49.752;6.094;2022-10-29T03:16:22;11.48;;;7.10;;
13847;SDS011;6994;49.752;6.094;2022-10-29T03:18:49;15.15;;;8.07;;
13847;SDS011;6994;49.752;6.094;2022-10-29T03:21:16;15.48;;;7.68;;
13847;SDS011;6994;49.752;6.094;2022-10-29T03:23:43;18.73;;;9.95;;
13847;SDS011;6994;49.752;6.094;2022-10-29T03:26:11;13.75;;;8.60;;
13847;SDS011;6994;49.752;6.094;2022-10-29T03:28:38;9.98;;;6.90;;
13847;SDS011;6994;49.752;6.094;2022-10-29T03:31:05;9.77;;;6.95;;
13847;SDS011;6994;49.752;6.094;2022-10-29T03:33:32;12.07;;;7.72;;
13847;SDS011;6994;49.752;6.094;2022-10-29T03:36:01;15.10;;;7.57;;
13847;SDS011;6994;49.752;6.094;2022-10-29T03:38:28;16.73;;;8.00;;
13847;SDS011;6994;49.752;6.094;2022-10-29T03:40:55;11.50;;;7.10;;
13847;SDS011;6994;49.752;6.094;2022-10-29T03:43:23;15.48;;;7.82;;
13847;SDS011;6994;49.752;6.094;2022-10-29T03:45:50;9.27;;;6.95;;
13847;SDS011;6994;49.752;6.094;2022-10-29T03:48:17;14.50;;;7.60;;
13847;SDS011;6994;49.752;6.094;2022-10-29T03:50:52;17.15;;;10.13;;
13847;SDS011;6994;49.752;6.094;2022-10-29T03:53:12;10.57;;;8.20;;
13847;SDS011;6994;49.752;6.094;2022-10-29T03:55:40;12.73;;;7.80;;
13847;SDS011;6994;49.752;6.094;2022-10-29T03:58:07;13.02;;;8.40;;
13847;SDS011;6994;49.752;6.094;2022-10-29T04:00:35;13.23;;;8.85;;
13847;SDS011;6994;49.752;6.094;2022-10-29T04:03:02;11.32;;;6.65;;
13847;SDS011;6994;49.752;6.094;2022-10-29T04:05:29;14.13;;;9.30;;
13847;SDS011;6994;49.752;6.094;2022-10-29T04:07:56;16.50;;;10.60;;
13847;SDS011;6994;49.752;6.094;2022-10-29T04:10:23;16.90;;;9.57;;
13847;SDS011;6994;49.752;6.094;2022-10-29T04:12:51;10.40;;;8.00;;
13847;SDS011;6994;49.752;6.094;2022-10-29T04:15:19;11.82;;;7.90;;
13847;SDS011;6994;49.752;6.094;2022-10-29T04:17:48;13.62;;;7.57;;
13847;SDS011;6994;49.752;6.094;2022-10-29T04:20:13;11.05;;;7.82;;
13847;SDS011;6994;49.752;6.094;2022-10-29T04:22:40;14.85;;;8.98;;
13847;SDS011;6994;49.752;6.094;2022-10-29T04:25:08;13.65;;;8.10;;
13847;SDS011;6994;49.752;6.094;2022-10-29T04:27:36;11.07;;;7.28;;
13847;SDS011;6994;49.752;6.094;2022-10-29T04:30:04;12.57;;;7.03;;
13847;SDS011;6994;49.752;6.094;2022-10-29T04:32:31;17.42;;;7.50;;
13847;SDS011;6994;49.752;6.094;2022-10-29T04:34:58;16.12;;;8.40;;
13847;SDS011;6994;49.752;6.094;2022-10-29T04:37:27;11.50;;;7.22;;
13847;SDS011;6994;49.752;6.094;2022-10-29T04:39:55;9.00;;;6.70;;
13847;SDS011;6994;49.752;6.094;2022-10-29T04:42:22;13.62;;;8.13;;
13847;SDS011;6994;49.752;6.094;2022-10-29T04:44:50;12.15;;;8.00;;
13847;SDS011;6994;49.752;6.094;2022-10-29T04:47:17;12.75;;;9.73;;
13847;SDS011;6994;49.752;6.094;2022-10-29T04:49:45;15.85;;;8.18;;
13847;SDS011;6994;49.752;6.094;2022-10-29T04:52:13;8.48;;;7.32;;
13847;SDS011;6994;49.752;6.094;2022-10-29T04:54:41;16.15;;;7.78;;
13847;SDS011;6994;49.752;6.094;2022-10-29T04:57:09;10.30;;;5.90;;
13847;SDS011;6994;49.752;6.094;2022-10-29T04:59:36;9.23;;;6.07;;
13847;SDS011;6994;49.752;6.094;2022-10-29T05:02:03;7.28;;;5.72;;
13847;SDS011;6994;49.752;6.094;2022-10-29T05:04:30;15.82;;;6.35;;
13847;SDS011;6994;49.752;6.094;2022-10-29T05:06:58;13.05;;;6.32;;
13847;SDS011;6994;49.752;6.094;2022-10-29T05:09:25;15.98;;;8.07;;
13847;SDS011;6994;49.752;6.094;2022-10-29T05:11:52;15.55;;;7.35;;
13847;SDS011;6994;49.752;6.094;2022-10-29T05:14:19;17.10;;;6.53;;
13847;SDS011;6994;49.752;6.094;2022-10-29T05:16:47;9.20;;;5.90;;
13847;SDS011;6994;49.752;6.094;2022-10-29T05:19:15;8.35;;;5.85;;
13847;SDS011;6994;49.752;6.094;2022-10-29T05:21:42;12.32;;;5.95;;
13847;SDS011;6994;49.752;6.094;2022-10-29T05:24:09;11.93;;;7.05;;
13847;SDS011;6994;49.752;6.094;2022-10-29T05:26:37;11.48;;;6.65;;
13847;SDS011;6994;49.752;6.094;2022-10-29T05:29:04;9.00;;;6.72;;
13847;SDS011;6994;49.752;6.094;2022-10-29T05:31:31;11.02;;;7.00;;
13847;SDS011;6994;49.752;6.094;2022-10-29T05:33:58;8.65;;;6.18;;
13847;SDS011;6994;49.752;6.094;2022-10-29T05:36:26;11.52;;;6.55;;
13847;SDS011;6994;49.752;6.094;2022-10-29T05:38:53;11.05;;;6.45;;
13847;SDS011;6994;49.752;6.094;2022-10-29T05:41:21;12.10;;;6.47;;
13847;SDS011;6994;49.752;6.094;2022-10-29T05:43:49;9.48;;;6.90;;
13847;SDS011;6994;49.752;6.094;2022-10-29T05:46:17;11.95;;;6.93;;
13847;SDS011;6994;49.752;6.094;2022-10-29T05:48:45;10.48;;;6.47;;
13847;SDS011;6994;49.752;6.094;2022-10-29T05:51:12;15.18;;;7.35;;
13847;SDS011;6994;49.752;6.094;2022-10-29T05:53:39;13.88;;;9.63;;
13847;SDS011;6994;49.752;6.094;2022-10-29T05:56:06;12.88;;;7.37;;
13847;SDS011;6994;49.752;6.094;2022-10-29T05:58:33;11.43;;;6.93;;
13847;SDS011;6994;49.752;6.094;2022-10-29T06:01:05;11.52;;;6.90;;
13847;SDS011;6994;49.752;6.094;2022-10-29T06:03:29;12.57;;;6.82;;
13847;SDS011;6994;49.752;6.094;2022-10-29T06:05:56;9.40;;;7.25;;
13847;SDS011;6994;49.752;6.094;2022-10-29T06:08:23;11.18;;;7.00;;
13847;SDS011;6994;49.752;6.094;2022-10-29T06:10:50;14.80;;;8.88;;
13847;SDS011;6994;49.752;6.094;2022-10-29T06:13:18;15.18;;;7.87;;
13847;SDS011;6994;49.752;6.094;2022-10-29T06:15:46;14.05;;;7.62;;
13847;SDS011;6994;49.752;6.094;2022-10-29T06:18:13;12.52;;;7.28;;
13847;SDS011;6994;49.752;6.094;2022-10-29T06:20:41;12.90;;;7.53;;
13847;SDS011;6994;49.752;6.094;2022-10-29T06:23:10;8.15;;;6.10;;
13847;SDS011;6994;49.752;6.094;2022-10-29T06:25:38;13.85;;;7.12;;
13847;SDS011;6994;49.752;6.094;2022-10-29T06:28:12;10.55;;;6.40;;
13847;SDS011;6994;49.752;6.094;2022-10-29T06:30:35;12.65;;;7.10;;
13847;SDS011;6994;49.752;6.094;2022-10-29T06:33:02;15.75;;;8.52;;
13847;SDS011;6994;49.752;6.094;2022-10-29T06:35:29;10.93;;;6.65;;
13847;SDS011;6994;49.752;6.094;2022-10-29T06:37:56;11.77;;;7.25;;
13847;SDS011;6994;49.752;6.094;2022-10-29T06:40:24;10.95;;;6.70;;
13847;SDS011;6994;49.752;6.094;2022-10-29T06:43:01;16.58;;;7.35;;
13847;SDS011;6994;49.752;6.094;2022-10-29T06:45:24;16.85;;;7.07;;
13847;SDS011;6994;49.752;6.094;2022-10-29T06:47:51;14.85;;;7.68;;
13847;SDS011;6994;49.752;6.094;2022-10-29T06:50:18;16.37;;;6.32;;
13847;SDS011;6994;49.752;6.094;2022-10-29T06:52:58;12.40;;;7.05;;
13847;SDS011;6994;49.752;6.094;2022-10-29T06:55:25;9.48;;;6.82;;
13847;SDS011;6994;49.752;6.094;2022-10-29T06:57:56;10.40;;;7.55;;
13847;SDS011;6994;49.752;6.094;2022-10-29T07:00:23;10.48;;;7.12;;
13847;SDS011;6994;49.752;6.094;2022-10-29T07:02:50;17.85;;;6.55;;
13847;SDS011;6994;49.752;6.094;2022-10-29T07:05:17;13.02;;;7.70;;
13847;SDS011;6994;49.752;6.094;2022-10-29T07:07:44;17.12;;;6.85;;
13847;SDS011;6994;49.752;6.094;2022-10-29T07:10:11;18.37;;;7.70;;
13847;SDS011;6994;49.752;6.094;2022-10-29T07:12:42;11.75;;;5.90;;
13847;SDS011;6994;49.752;6.094;2022-10-29T07:15:07;9.25;;;6.93;;
13847;SDS011;6994;49.752;6.094;2022-10-29T07:17:34;9.48;;;6.60;;
13847;SDS011;6994;49.752;6.094;2022-10-29T07:20:01;10.57;;;6.20;;
13847;SDS011;6994;49.752;6.094;2022-10-29T07:22:28;9.65;;;6.30;;
13847;SDS011;6994;49.752;6.094;2022-10-29T07:24:55;10.80;;;6.03;;
13847;SDS011;6994;49.752;6.094;2022-10-29T07:27:23;11.48;;;7.57;;
13847;SDS011;6994;49.752;6.094;2022-10-29T07:29:50;15.43;;;7.93;;
13847;SDS011;6994;49.752;6.094;2022-10-29T07:32:17;12.77;;;6.65;;
13847;SDS011;6994;49.752;6.094;2022-10-29T07:34:44;7.43;;;6.20;;
13847;SDS011;6994;49.752;6.094;2022-10-29T07:37:11;12.75;;;6.72;;
13847;SDS011;6994;49.752;6.094;2022-10-29T07:39:39;12.40;;;7.80;;
13847;SDS011;6994;49.752;6.094;2022-10-29T07:42:06;10.88;;;6.40;;
13847;SDS011;6994;49.752;6.094;2022-10-29T07:44:33;10.73;;;6.20;;
13847;SDS011;6994;49.752;6.094;2022-10-29T07:47:00;10.98;;;6.65;;
13847;SDS011;6994;49.752;6.094;2022-10-29T07:49:27;13.23;;;6.80;;
13847;SDS011;6994;49.752;6.094;2022-10-29T07:51:55;13.57;;;7.60;;
13847;SDS011;6994;49.752;6.094;2022-10-29T07:54:23;9.93;;;6.43;;
13847;SDS011;6994;49.752;6.094;2022-10-29T07:56:51;9.98;;;6.30;;
13847;SDS011;6994;49.752;6.094;2022-10-29T07:59:19;14.70;;;6.28;;
13847;SDS011;6994;49.752;6.094;2022-10-29T08:01:46;13.40;;;6.15;;
13847;SDS011;6994;49.752;6.094;2022-10-29T08:04:13;11.75;;;6.50;;
13847;SDS011;6994;49.752;6.094;2022-10-29T08:06:40;12.35;;;6.47;;
13847;SDS011;6994;49.752;6.094;2022-10-29T08:09:09;9.00;;;6.30;;
13847;SDS011;6994;49.752;6.094;2022-10-29T08:11:35;10.13;;;6.68;;
13847;SDS011;6994;49.752;6.094;2022-10-29T08:14:02;11.45;;;6.05;;
13847;SDS011;6994;49.752;6.094;2022-10-29T08:16:30;9.25;;;5.80;;
13847;SDS011;6994;49.752;6.094;2022-10-29T08:18:58;8.55;;;6.07;;
13847;SDS011;6994;49.752;6.094;2022-10-29T08:21:26;15.93;;;7.07;;
13847;SDS011;6994;49.752;6.094;2022-10-29T08:23:54;8.23;;;6.00;;
13847;SDS011;6994;49.752;6.094;2022-10-29T08:26:21;13.77;;;6.00;;
13847;SDS011;6994;49.752;6.094;2022-10-29T08:28:48;16.87;;;6.82;;
13847;SDS011;6994;49.752;6.094;2022-10-29T08:31:15;13.02;;;7.30;;
13847;SDS011;6994;49.752;6.094;2022-10-29T08:33:43;12.43;;;6.35;;
13847;SDS011;6994;49.752;6.094;2022-10-29T08:36:10;12.05;;;5.78;;
13847;SDS011;6994;49.752;6.094;2022-10-29T08:38:38;10.18;;;6.53;;
13847;SDS011;6994;49.752;6.094;2022-10-29T08:41:19;11.27;;;6.47;;
13847;SDS011;6994;49.752;6.094;2022-10-29T08:43:57;12.85;;;6.72;;
13847;SDS011;6994;49.752;6.094;2022-10-29T08:46:39;12.50;;;5.93;;
13847;SDS011;6994;49.752;6.094;2022-10-29T08:49:08;11.10;;;6.03;;
13847;SDS011;6994;49.752;6.094;2022-10-29T08:51:35;11.93;;;5.93;;
13847;SDS011;6994;49.752;6.094;2022-10-29T08:54:02;13.55;;;7.35;;
13847;SDS011;6994;49.752;6.094;2022-10-29T08:56:33;13.25;;;7.87;;
13847;SDS011;6994;49.752;6.094;2022-10-29T08:59:02;17.95;;;6.68;;
13847;SDS011;6994;49.752;6.094;2022-10-29T09:01:27;12.95;;;5.30;;
13847;SDS011;6994;49.752;6.094;2022-10-29T09:03:55;17.92;;;6.90;;
13847;SDS011;6994;49.752;6.094;2022-10-29T09:11:24;7.57;;;5.30;;
13847;SDS011;6994;49.752;6.094;2022-10-29T09:13:51;10.52;;;6.03;;
13847;SDS011;6994;49.752;6.094;2022-10-29T09:16:20;11.07;;;6.55;;
13847;SDS011;6994;49.752;6.094;2022-10-29T09:19:09;15.07;;;7.95;;
13847;SDS011;6994;49.752;6.094;2022-10-29T09:21:48;13.15;;;6.50;;
13847;SDS011;6994;49.752;6.094;2022-10-29T09:24:26;15.65;;;7.10;;
13847;SDS011;6994;49.752;6.094;2022-10-29T09:27:19;8.48;;;6.10;;
13847;SDS011;6994;49.752;6.094;2022-10-29T09:30:01;12.48;;;6.20;;
13847;SDS011;6994;49.752;6.094;2022-10-29T09:32:35;11.65;;;5.57;;
13847;SDS011;6994;49.752;6.094;2022-10-29T09:35:02;16.15;;;6.78;;
13847;SDS011;6994;49.752;6.094;2022-10-29T09:39:56;8.65;;;6.15;;
13847;SDS011;6994;49.752;6.094;2022-10-29T09:42:25;15.75;;;7.70;;
13847;SDS011;6994;49.752;6.094;2022-10-29T09:44:55;19.23;;;7.03;;
13847;SDS011;6994;49.752;6.094;2022-10-29T09:52:40;16.40;;;6.22;;
13847;SDS011;6994;49.752;6.094;2022-10-29T09:55:10;10.55;;;5.25;;
13847;SDS011;6994;49.752;6.094;2022-10-29T09:57:35;7.78;;;6.37;;
13847;SDS011;6994;49.752;6.094;2022-10-29T10:00:04;12.50;;;6.72;;
13847;SDS011;6994;49.752;6.094;2022-10-29T10:02:34;14.43;;;5.72;;
13847;SDS011;6994;49.752;6.094;2022-10-29T10:05:05;12.35;;;7.68;;
13847;SDS011;6994;49.752;6.094;2022-10-29T10:07:32;13.32;;;8.30;;
13847;SDS011;6994;49.752;6.094;2022-10-29T10:10:00;16.90;;;8.05;;
13847;SDS011;6994;49.752;6.094;2022-10-29T10:15:05;10.45;;;6.10;;
13847;SDS011;6994;49.752;6.094;2022-10-29T10:20:26;13.07;;;6.72;;
13847;SDS011;6994;49.752;6.094;2022-10-29T10:22:55;14.43;;;6.60;;
13847;SDS011;6994;49.752;6.094;2022-10-29T10:25:32;13.00;;;6.55;;
13847;SDS011;6994;49.752;6.094;2022-10-29T10:28:02;14.20;;;7.57;;
13847;SDS011;6994;49.752;6.094;2022-10-29T10:30:25;13.02;;;7.10;;
13847;SDS011;6994;49.752;6.094;2022-10-29T10:32:53;14.95;;;7.22;;
13847;SDS011;6994;49.752;6.094;2022-10-29T10:35:29;17.05;;;7.05;;
13847;SDS011;6994;49.752;6.094;2022-10-29T10:37:56;11.63;;;5.97;;
13847;SDS011;6994;49.752;6.094;2022-10-29T10:40:24;12.70;;;7.12;;
13847;SDS011;6994;49.752;6.094;2022-10-29T10:42:51;11.20;;;6.82;;
13847;SDS011;6994;49.752;6.094;2022-10-29T10:45:26;13.82;;;7.65;;
13847;SDS011;6994;49.752;6.094;2022-10-29T10:47:49;12.80;;;7.18;;
13847;SDS011;6994;49.752;6.094;2022-10-29T10:50:17;16.60;;;7.07;;
13847;SDS011;6994;49.752;6.094;2022-10-29T10:52:52;13.80;;;6.93;;
13847;SDS011;6994;49.752;6.094;2022-10-29T10:55:20;14.18;;;6.43;;
13847;SDS011;6994;49.752;6.094;2022-10-29T10:57:57;10.15;;;6.15;;
13847;SDS011;6994;49.752;6.094;2022-10-29T11:00:41;9.40;;;6.10;;
13847;SDS011;6994;49.752;6.094;2022-10-29T11:03:20;13.85;;;5.95;;
13847;SDS011;6994;49.752;6.094;2022-10-29T11:05:48;14.23;;;6.32;;
13847;SDS011;6994;49.752;6.094;2022-10-29T11:08:23;12.95;;;5.43;;
13847;SDS011;6994;49.752;6.094;2022-10-29T11:10:53;12.98;;;7.22;;
13847;SDS011;6994;49.752;6.094;2022-10-29T11:13:23;13.80;;;7.00;;
13847;SDS011;6994;49.752;6.094;2022-10-29T11:15:53;14.93;;;6.00;;
13847;SDS011;6994;49.752;6.094;2022-10-29T11:18:19;13.18;;;6.65;;
13847;SDS011;6994;49.752;6.094;2022-10-29T11:20:49;15.57;;;6.80;;
13847;SDS011;6994;49.752;6.094;2022-10-29T11:23:33;13.07;;;7.35;;
13847;SDS011;6994;49.752;6.094;2022-10-29T11:26:24;14.32;;;6.70;;
13847;SDS011;6994;49.752;6.094;2022-10-29T11:29:03;16.90;;;8.13;;
13847;SDS011;6994;49.752;6.094;2022-10-29T11:31:48;14.10;;;7.40;;
13847;SDS011;6994;49.752;6.094;2022-10-29T11:34:18;18.33;;;7.20;;
13847;SDS011;6994;49.752;6.094;2022-10-29T11:36:54;12.70;;;6.85;;
13847;SDS011;6994;49.752;6.094;2022-10-29T11:39:44;12.80;;;6.53;;
13847;SDS011;6994;49.752;6.094;2022-10-29T11:42:02;19.37;;;7.95;;
13847;SDS011;6994;49.752;6.094;2022-10-29T11:44:31;11.68;;;6.45;;
13847;SDS011;6994;49.752;6.094;2022-10-29T11:52:47;9.50;;;6.25;;
13847;SDS011;6994;49.752;6.094;2022-10-29T11:55:37;7.35;;;5.18;;
13847;SDS011;6994;49.752;6.094;2022-10-29T11:58:10;12.43;;;7.50;;
13847;SDS011;6994;49.752;6.094;2022-10-29T12:03:45;12.40;;;5.40;;
13847;SDS011;6994;49.752;6.094;2022-10-29T12:06:14;12.37;;;6.55;;
13847;SDS011;6994;49.752;6.094;2022-10-29T12:19:29;11.35;;;5.43;;
13847;SDS011;6994;49.752;6.094;2022-10-29T12:22:33;11.50;;;5.65;;
13847;SDS011;6994;49.752;6.094;2022-10-29T12:25:12;11.45;;;5.00;;
13847;SDS011;6994;49.752;6.094;2022-10-29T12:30:25;11.05;;;5.45;;
13847;SDS011;6994;49.752;6.094;2022-10-29T12:33:04;9.73;;;5.40;;
13847;SDS011;6994;49.752;6.094;2022-10-29T12:35:54;15.32;;;6.15;;
13847;SDS011;6994;49.752;6.094;2022-10-29T12:38:29;12.95;;;5.80;;
13847;SDS011;6994;49.752;6.094;2022-10-29T12:41:12;15.15;;;5.82;;
13847;SDS011;6994;49.752;6.094;2022-10-29T12:43:35;13.10;;;5.45;;
13847;SDS011;6994;49.752;6.094;2022-10-29T12:51:27;14.25;;;6.00;;
13847;SDS011;6994;49.752;6.094;2022-10-29T12:56:42;8.82;;;5.22;;
13847;SDS011;6994;49.752;6.094;2022-10-29T13:02:16;10.90;;;5.67;;
13847;SDS011;6994;49.752;6.094;2022-10-29T13:04:25;13.90;;;6.32;;
13847;SDS011;6994;49.752;6.094;2022-10-29T13:07:05;16.52;;;6.10;;
13847;SDS011;6994;49.752;6.094;2022-10-29T13:09:43;11.93;;;5.47;;
13847;SDS011;6994;49.752;6.094;2022-10-29T13:12:11;12.85;;;6.03;;
13847;SDS011;6994;49.752;6.094;2022-10-29T13:14:44;10.57;;;5.07;;
13847;SDS011;6994;49.752;6.094;2022-10-29T13:17:22;11.60;;;5.40;;
13847;SDS011;6994;49.752;6.094;2022-10-29T13:19:58;13.30;;;5.15;;
13847;SDS011;6994;49.752;6.094;2022-10-29T13:27:53;15.55;;;7.37;;
13847;SDS011;6994;49.752;6.094;2022-10-29T13:30:21;12.93;;;6.32;;
13847;SDS011;6994;49.752;6.094;2022-10-29T13:32:48;13.32;;;6.35;;
13847;SDS011;6994;49.752;6.094;2022-10-29T13:42:53;16.08;;;6.57;;
13847;SDS011;6994;49.752;6.094;2022-10-29T13:45:19;12.43;;;6.28;;
13847;SDS011;6994;49.752;6.094;2022-10-29T13:47:46;13.32;;;6.75;;
13847;SDS011;6994;49.752;6.094;2022-10-29T13:50:17;11.02;;;6.78;;
13847;SDS011;6994;49.752;6.094;2022-10-29T13:52:41;8.38;;;5.45;;
13847;SDS011;6994;49.752;6.094;2022-10-29T13:55:08;11.15;;;6.20;;
13847;SDS011;6994;49.752;6.094;2022-10-29T13:57:42;10.25;;;6.18;;
13847;SDS011;6994;49.752;6.094;2022-10-29T14:05:12;14.68;;;6.93;;
13847;SDS011;6994;49.752;6.094;2022-10-29T14:08:19;15.15;;;6.93;;
13847;SDS011;6994;49.752;6.094;2022-10-29T14:10:20;9.57;;;5.68;;
13847;SDS011;6994;49.752;6.094;2022-10-29T14:12:47;18.27;;;6.25;;
13847;SDS011;6994;49.752;6.094;2022-10-29T14:15:14;9.32;;;5.87;;
13847;SDS011;6994;49.752;6.094;2022-10-29T14:17:41;11.38;;;5.93;;
13847;SDS011;6994;49.752;6.094;2022-10-29T14:20:23;14.40;;;6.03;;
13847;SDS011;6994;49.752;6.094;2022-10-29T14:22:52;16.12;;;6.35;;
13847;SDS011;6994;49.752;6.094;2022-10-29T14:25:32;13.15;;;5.72;;
13847;SDS011;6994;49.752;6.094;2022-10-29T14:28:15;17.50;;;5.95;;
13847;SDS011;6994;49.752;6.094;2022-10-29T14:30:40;14.05;;;5.10;;
13847;SDS011;6994;49.752;6.094;2022-10-29T14:33:21;10.65;;;6.40;;
13847;SDS011;6994;49.752;6.094;2022-10-29T14:35:44;8.05;;;4.50;;
13847;SDS011;6994;49.752;6.094;2022-10-29T14:38:11;9.57;;;5.12;;
13847;SDS011;6994;49.752;6.094;2022-10-29T14:40:39;16.67;;;6.25;;
13847;SDS011;6994;49.752;6.094;2022-10-29T14:43:11;8.85;;;5.37;;
13847;SDS011;6994;49.752;6.094;2022-10-29T14:45:33;11.35;;;6.47;;
13847;SDS011;6994;49.752;6.094;2022-10-29T14:48:00;14.55;;;5.95;;
13847;SDS011;6994;49.752;6.094;2022-10-29T14:50:30;14.48;;;5.60;;
13847;SDS011;6994;49.752;6.094;2022-10-29T14:53:02;14.82;;;7.05;;
13847;SDS011;6994;49.752;6.094;2022-10-29T14:55:29;13.52;;;6.80;;
13847;SDS011;6994;49.752;6.094;2022-10-29T14:58:06;15.23;;;6.75;;
13847;SDS011;6994;49.752;6.094;2022-10-29T15:00:35;11.57;;;6.68;;
13847;SDS011;6994;49.752;6.094;2022-10-29T15:03:03;12.43;;;7.22;;
13847;SDS011;6994;49.752;6.094;2022-10-29T15:05:30;10.32;;;5.50;;
13847;SDS011;6994;49.752;6.094;2022-10-29T15:10:46;11.20;;;7.18;;
13847;SDS011;6994;49.752;6.094;2022-10-29T15:13:17;9.82;;;7.05;;
13847;SDS011;6994;49.752;6.094;2022-10-29T15:15:47;13.85;;;6.50;;
13847;SDS011;6994;49.752;6.094;2022-10-29T15:18:15;11.68;;;6.07;;
13847;SDS011;6994;49.752;6.094;2022-10-29T15:23:05;11.57;;;6.50;;
13847;SDS011;6994;49.752;6.094;2022-10-29T15:25:35;29.87;;;9.10;;
13847;SDS011;6994;49.752;6.094;2022-10-29T15:28:02;41.30;;;9.30;;
13847;SDS011;6994;49.752;6.094;2022-10-29T15:30:33;16.62;;;8.05;;
13847;SDS011;6994;49.752;6.094;2022-10-29T15:33:00;14.73;;;7.15;;
13847;SDS011;6994;49.752;6.094;2022-10-29T15:35:26;23.70;;;9.48;;
13847;SDS011;6994;49.752;6.094;2022-10-29T15:37:54;26.23;;;8.82;;
13847;SDS011;6994;49.752;6.094;2022-10-29T15:40:21;16.80;;;6.60;;
13847;SDS011;6994;49.752;6.094;2022-10-29T15:42:49;7.93;;;4.97;;
13847;SDS011;6994;49.752;6.094;2022-10-29T15:45:20;13.20;;;6.15;;
13847;SDS011;6994;49.752;6.094;2022-10-29T15:47:47;16.35;;;6.25;;
13847;SDS011;6994;49.752;6.094;2022-10-29T15:50:17;18.75;;;6.37;;
13847;SDS011;6994;49.752;6.094;2022-10-29T15:52:47;12.20;;;6.43;;
13847;SDS011;6994;49.752;6.094;2022-10-29T15:55:28;14.82;;;6.32;;
13847;SDS011;6994;49.752;6.094;2022-10-29T15:58:00;16.27;;;8.70;;
13847;SDS011;6994;49.752;6.094;2022-10-29T16:00:29;15.02;;;7.10;;
13847;SDS011;6994;49.752;6.094;2022-10-29T16:02:59;12.05;;;7.47;;
13847;SDS011;6994;49.752;6.094;2022-10-29T16:05:23;15.70;;;7.82;;
13847;SDS011;6994;49.752;6.094;2022-10-29T16:07:50;12.23;;;7.18;;
13847;SDS011;6994;49.752;6.094;2022-10-29T16:10:19;12.50;;;7.47;;
13847;SDS011;6994;49.752;6.094;2022-10-29T16:12:46;13.65;;;8.13;;
13847;SDS011;6994;49.752;6.094;2022-10-29T16:15:16;14.15;;;9.18;;
13847;SDS011;6994;49.752;6.094;2022-10-29T16:17:43;13.07;;;9.02;;
13847;SDS011;6994;49.752;6.094;2022-10-29T16:20:13;13.05;;;7.53;;
13847;SDS011;6994;49.752;6.094;2022-10-29T16:22:40;13.88;;;8.05;;
13847;SDS011;6994;49.752;6.094;2022-10-29T16:25:18;12.35;;;7.65;;
13847;SDS011;6994;49.752;6.094;2022-10-29T16:27:41;22.48;;;15.43;;
13847;SDS011;6994;49.752;6.094;2022-10-29T16:30:09;30.08;;;16.20;;